Time;durP1;ratioP1;P1;durP2;ratioP2;P2;SDS_P1;SDS_P2;PMS_P1;PMS_P2;Temp;Humidity;BMP_temperature;BMP_pressure;BME280_temperature;BME280_humidity;BME280_pressure;Samples;Min_cycle;Max_cycle;Signal;HPM_P1;HPM_P2
2021/06/10 00:10:42;;;;;;;15.05;10.30;;;;;;;15.10;95.73;100681.64;713768;1200;115202;-76
2021/06/10 00:26:03;;;;;;;14.23;9.33;;;;;;;14.94;96.50;100682.37;713704;1199;114831;-77
2021/06/10 00:41:23;;;;;;;13.58;8.10;;;;;;;14.79;96.89;100685.55;714030;1177;113969;-77
2021/06/10 00:56:45;;;;;;;11.00;6.97;;;;;;;14.58;96.49;100670.00;713644;1203;114288;-76
2021/06/10 01:12:27;;;;;;;10.75;8.33;;;;;;;14.11;97.58;100664.94;714024;1199;115755;-76
2021/06/10 01:27:52;;;;;;;13.17;8.60;;;;;;;14.22;99.53;100663.89;713932;1199;114526;-77
2021/06/10 01:43:17;;;;;;;11.30;8.55;;;;;;;14.21;100.00;100662.22;714078;1199;115573;-76
2021/06/10 01:58:38;;;;;;;20.18;9.53;;;;;;;14.09;100.00;100661.61;714142;1199;113971;-76
2021/06/10 02:13:59;;;;;;;13.45;7.78;;;;;;;13.71;100.00;100671.40;713815;1202;114599;-77
2021/06/10 02:29:19;;;;;;;13.48;8.73;;;;;;;13.78;100.00;100662.77;713906;1199;114425;-77
2021/06/10 02:44:43;;;;;;;21.97;11.63;;;;;;;13.87;100.00;100666.33;713808;1199;115459;-76
2021/06/10 03:00:06;;;;;;;13.43;9.33;;;;;;;13.58;100.00;100659.40;713787;1199;115531;-75
2021/06/10 03:15:29;;;;;;;15.93;9.78;;;;;;;13.79;100.00;100659.16;713905;1202;115463;-76
2021/06/10 03:30:50;;;;;;;15.25;10.60;;;;;;;14.34;100.00;100652.13;713954;1198;114196;-81
2021/06/10 03:46:11;;;;;;;18.95;11.60;;;;;;;14.47;100.00;100654.39;713809;1202;115832;-81
2021/06/10 04:01:32;;;;;;;20.03;12.03;;;;;;;14.83;100.00;100651.72;713899;1200;115335;-80
2021/06/10 04:16:52;;;;;;;15.77;10.37;;;;;;;15.34;100.00;100667.73;714147;1202;115107;-81
2021/06/10 04:32:13;;;;;;;19.30;10.70;;;;;;;15.84;100.00;100660.88;714328;1175;114398;-83
2021/06/10 04:47:33;;;;;;;16.95;11.23;;;;;;;16.42;100.00;100655.70;714104;1200;114415;-82
2021/06/10 05:02:53;;;;;;;19.20;11.60;;;;;;;17.04;100.00;100655.19;716803;1163;114890;-76
2021/06/10 05:18:14;;;;;;;17.37;10.27;;;;;;;17.58;100.00;100659.83;714032;1200;114423;-77
2021/06/10 05:33:36;;;;;;;15.03;9.43;;;;;;;18.23;100.00;100649.07;713670;1200;115228;-74
2021/06/10 05:48:56;;;;;;;17.35;10.50;;;;;;;18.70;100.00;100661.32;713787;1200;115106;-78
2021/06/10 06:04:16;;;;;;;12.47;8.97;;;;;;;19.25;99.16;100653.16;713908;1200;115125;-76
2021/06/10 06:19:37;;;;;;;8.48;6.38;;;;;;;19.72;94.67;100664.42;714067;1199;114256;-80
2021/06/10 06:34:58;;;;;;;13.38;6.85;;;;;;;20.26;90.40;100669.33;714067;1176;114732;-79
2021/06/10 06:50:18;;;;;;;8.70;5.98;;;;;;;20.51;88.70;100673.44;713824;1203;113870;-78
2021/06/10 07:05:38;;;;;;;11.43;6.00;;;;;;;21.24;86.45;100665.20;713946;1203;115050;-77
2021/06/10 07:20:59;;;;;;;10.63;4.63;;;;;;;21.73;82.57;100676.76;714199;1200;115238;-76
2021/06/10 07:36:20;;;;;;;7.08;4.45;;;;;;;22.66;78.27;100681.50;713894;1200;115123;-78
2021/06/10 07:51:40;;;;;;;4.80;3.03;;;;;;;24.20;74.05;100675.70;714245;1199;113862;-83
2021/06/10 08:07:00;;;;;;;2.70;2.15;;;;;;;25.22;68.43;100682.72;714514;1199;115506;-81
2021/06/10 08:22:20;;;;;;;2.05;1.88;;;;;;;25.95;65.23;100680.22;715157;1199;114754;-78
2021/06/10 08:37:42;;;;;;;4.65;1.98;;;;;;;26.08;60.67;100674.68;714906;1199;115126;-78
2021/06/10 08:53:04;;;;;;;5.78;3.30;;;;;;;27.03;59.41;100677.52;715391;1199;114246;-77
2021/06/10 09:08:24;;;;;;;2.93;2.30;;;;;;;26.33;56.02;100687.14;716195;1199;114666;-78
2021/06/10 09:23:45;;;;;;;3.78;2.08;;;;;;;26.14;56.52;100677.50;714039;1199;115187;-78
2021/06/10 09:39:10;;;;;;;3.80;1.70;;;;;;;26.62;54.73;100683.78;713915;1203;114836;-77
2021/06/10 09:54:42;;;;;;;7.40;1.63;;;;;;;27.45;52.90;100686.48;713971;1199;115239;-78
2021/06/10 10:10:06;;;;;;;18.87;4.30;;;;;;;27.59;51.63;100678.97;713974;1199;114008;-77
2021/06/10 10:25:27;;;;;;;2.33;1.98;;;;;;;27.04;50.52;100665.70;714261;1199;114410;-75
2021/06/10 10:40:52;;;;;;;3.88;1.73;;;;;;;27.33;50.81;100659.55;713984;1199;113978;-77
2021/06/10 10:56:13;;;;;;;3.98;2.10;;;;;;;27.96;50.54;100663.21;714875;1174;114984;-76
2021/06/10 11:12:10;;;;;;;3.63;1.90;;;;;;;28.22;50.33;100647.52;713993;1200;113967;-77
2021/06/10 11:27:33;;;;;;;6.38;2.05;;;;;;;28.43;48.44;100640.58;713698;1203;114204;-79
2021/06/10 11:42:54;;;;;;;2.80;1.53;;;;;;;30.07;48.35;100634.81;713873;1199;113793;-79
2021/06/10 11:58:15;;;;;;;2.55;1.25;;;;;;;28.55;49.10;100625.11;714446;1202;114503;-72
2021/06/10 12:13:42;;;;;;;3.38;2.10;;;;;;;29.34;48.90;100612.44;722995;1199;113771;-81
2021/06/10 12:29:04;;;;;;;2.20;1.40;;;;;;;28.59;48.87;100597.66;714386;1202;113670;-79
2021/06/10 12:44:27;;;;;;;2.03;1.47;;;;;;;30.24;48.11;100589.50;714515;1177;113619;-77
2021/06/10 12:59:52;;;;;;;5.60;1.70;;;;;;;29.30;47.64;100564.55;714213;1202;113850;-80
2021/06/10 13:15:15;;;;;;;5.93;1.95;;;;;;;28.98;47.33;100570.65;714200;1200;114491;-80
2021/06/10 13:30:35;;;;;;;2.83;1.63;;;;;;;30.60;46.80;100559.18;714011;1202;114623;-76
2021/06/10 13:45:56;;;;;;;3.98;1.80;;;;;;;30.89;44.91;100545.23;714248;1177;114415;-75
2021/06/10 14:01:16;;;;;;;1.88;1.68;;;;;;;29.75;45.30;100533.66;714158;1175;114594;-75
2021/06/10 14:16:37;;;;;;;3.40;2.07;;;;;;;30.42;44.74;100530.63;714491;1199;114438;-77
2021/06/10 14:47:42;;;;;;;4.90;1.57;;;;;;;30.51;45.14;100507.44;714556;1203;114362;-78
2021/06/10 15:03:03;;;;;;;9.43;2.05;;;;;;;30.18;45.75;100487.75;714267;1199;114864;-78
2021/06/10 15:18:23;;;;;;;5.58;1.93;;;;;;;29.87;46.03;100485.66;714379;1182;114565;-74
2021/06/10 15:33:44;;;;;;;16.90;4.03;;;;;;;29.74;45.97;100493.38;716135;1200;113709;-78
2021/06/10 15:49:05;;;;;;;5.63;2.60;;;;;;;29.57;46.73;100482.70;714855;1202;115471;-79
2021/06/10 16:04:26;;;;;;;3.00;1.78;;;;;;;29.07;47.84;100473.83;714423;1200;113416;-76
2021/06/10 16:19:49;;;;;;;4.13;2.48;;;;;;;28.70;48.37;100465.34;714313;1177;113766;-77
2021/06/10 16:35:11;;;;;;;7.85;3.28;;;;;;;28.25;48.46;100469.04;714096;1199;115074;-78
2021/06/10 16:50:32;;;;;;;5.67;3.23;;;;;;;27.56;49.42;100481.72;714209;1200;115088;-75
2021/06/10 17:05:52;;;;;;;10.10;4.90;;;;;;;27.08;52.34;100474.90;714540;1202;114717;-77
2021/06/10 17:21:13;;;;;;;10.83;4.87;;;;;;;26.88;53.86;100481.55;715258;1199;114912;-81
2021/06/10 17:36:34;;;;;;;6.18;3.48;;;;;;;26.20;55.56;100467.72;715647;1199;115442;-79
2021/06/10 17:51:55;;;;;;;10.78;5.15;;;;;;;25.59;56.87;100467.08;715659;1199;114581;-77
2021/06/10 18:07:15;;;;;;;16.05;8.33;;;;;;;24.42;59.74;100480.47;714768;1199;115303;-75
2021/06/10 18:22:36;;;;;;;19.63;9.43;;;;;;;23.71;62.00;100503.13;714987;1199;114683;-80
2021/06/10 18:37:57;;;;;;;23.60;11.40;;;;;;;23.02;63.27;100525.08;715310;1174;114106;-76
2021/06/10 18:53:17;;;;;;;40.70;21.43;;;;;;;22.57;65.27;100546.41;715186;1199;115258;-77
2021/06/10 19:08:38;;;;;;;26.73;14.53;;;;;;;21.92;67.53;100555.00;714962;1200;115411;-77
2021/06/10 19:23:58;;;;;;;18.60;9.08;;;;;;;21.31;68.90;100570.01;714805;1200;115503;-74
2021/06/10 19:39:19;;;;;;;20.98;9.08;;;;;;;20.65;71.40;100576.59;715459;1199;114445;-76
2021/06/10 19:54:42;;;;;;;19.88;9.88;;;;;;;20.08;72.49;100573.08;715197;1200;114113;-75
2021/06/10 20:10:04;;;;;;;11.75;5.60;;;;;;;19.93;72.83;100575.81;714875;1199;115837;-76
2021/06/10 20:25:29;;;;;;;13.47;7.47;;;;;;;19.65;72.82;100567.70;715234;1199;114120;-76
2021/06/10 20:40:50;;;;;;;10.03;6.00;;;;;;;19.48;73.15;100561.77;715934;1200;114584;-77
2021/06/10 20:56:10;;;;;;;10.35;5.78;;;;;;;19.18;72.64;100561.84;715128;1199;115374;-77
2021/06/10 21:11:32;;;;;;;16.55;7.53;;;;;;;18.86;73.78;100559.34;715912;1199;114293;-77
2021/06/10 21:26:53;;;;;;;14.28;5.10;;;;;;;18.57;74.67;100557.50;717112;1199;113988;-77
2021/06/10 21:42:14;;;;;;;13.38;5.73;;;;;;;18.11;76.17;100556.55;714566;1199;114300;-77
2021/06/10 21:57:35;;;;;;;9.05;5.00;;;;;;;17.87;78.51;100551.39;714349;1202;115490;-80
2021/06/10 22:12:57;;;;;;;13.45;7.65;;;;;;;17.76;79.26;100548.17;714146;1199;115100;-78
2021/06/10 22:28:19;;;;;;;18.90;11.88;;;;;;;17.54;79.89;100538.34;714115;1199;115278;-78
2021/06/10 22:43:40;;;;;;;4.50;3.70;;;;;;;16.92;80.77;100524.88;714217;1202;115341;-78
2021/06/10 22:59:00;;;;;;;7.43;4.65;;;;;;;16.40;83.60;100531.41;714076;1200;114933;-77
2021/06/10 23:14:21;;;;;;;15.20;5.78;;;;;;;16.39;85.22;100537.72;714129;1200;114918;-77
2021/06/10 23:29:41;;;;;;;12.57;6.30;;;;;;;16.27;85.88;100537.23;714321;1203;115007;-79
2021/06/10 23:45:04;;;;;;;13.77;8.10;;;;;;;15.99;87.23;100527.97;713994;1175;113980;-76
